SAAR/ROS METAR and TAF weather

Enter ICAO airport designator
Station Type Date Time Source
SAAR METAR 2019/08/20 09:00 UTC NOAA

SAAR 200900Z 09004KT CAVOK 06/03 Q1029


Station Type Date Time Source
SAAR Decoded METAR 2019/08/20 09:00 UTC NOAA

Rosario Aerodrome, Argentina (SAAR) 32-55S 060-47W 25M
Aug 20, 2019 - 05:00 AM EDT / 2019.08.20 0900 UTC
Wind: from the E (090 degrees) at 5 MPH (4 KT):0
Visibility: greater than 7 mile(s):0
Temperature: 42 F (6 C)
Dew Point: 37 F (3 C)
Relative Humidity: 81%
Pressure (altimeter): 30.39 in. Hg (1029 hPa)
ob: SAAR 200900Z 09004KT CAVOK 06/03 Q1029
cycle: 9

Station Type Date Time Source
SAAR TAF 2019/08/20 06:09 UTC NOAA

TAF TAF SAAR 200500Z 2006/2106 09005KT CAVOK TX14/2018Z TN03/2010Z
BECMG 2007/2010 SCT030 SCT050 BKN100
BECMG 2016/2019 CAVOK

Example: see airport list